sensor_id;sensor_type;location;lat;lon;timestamp;P1;durP1;ratioP1;P2;durP2;ratioP2
18104;SDS011;9179;50.968;3.134;2024-02-15T00:00:16;4.13;;;3.35;;
18104;SDS011;9179;50.968;3.134;2024-02-15T00:02:43;5.72;;;3.47;;
18104;SDS011;9179;50.968;3.134;2024-02-15T00:05:10;5.15;;;3.58;;
18104;SDS011;9179;50.968;3.134;2024-02-15T00:07:38;5.88;;;3.53;;
18104;SDS011;9179;50.968;3.134;2024-02-15T00:10:07;4.70;;;3.38;;
18104;SDS011;9179;50.968;3.134;2024-02-15T00:12:35;6.07;;;3.28;;
18104;SDS011;9179;50.968;3.134;2024-02-15T00:15:03;5.55;;;3.83;;
18104;SDS011;9179;50.968;3.134;2024-02-15T00:17:31;6.38;;;2.90;;
18104;SDS011;9179;50.968;3.134;2024-02-15T00:20:00;4.28;;;3.05;;
18104;SDS011;9179;50.968;3.134;2024-02-15T00:22:29;4.90;;;3.60;;
18104;SDS011;9179;50.968;3.134;2024-02-15T00:24:58;5.55;;;3.60;;
18104;SDS011;9179;50.968;3.134;2024-02-15T00:27:26;5.95;;;3.20;;
18104;SDS011;9179;50.968;3.134;2024-02-15T00:29:54;7.07;;;4.32;;
18104;SDS011;9179;50.968;3.134;2024-02-15T00:32:21;6.55;;;3.55;;
18104;SDS011;9179;50.968;3.134;2024-02-15T00:34:48;6.97;;;3.88;;
18104;SDS011;9179;50.968;3.134;2024-02-15T00:37:14;4.05;;;3.65;;
18104;SDS011;9179;50.968;3.134;2024-02-15T00:39:42;8.18;;;3.90;;
18104;SDS011;9179;50.968;3.134;2024-02-15T00:42:09;5.45;;;3.38;;
18104;SDS011;9179;50.968;3.134;2024-02-15T00:44:37;5.57;;;3.20;;
18104;SDS011;9179;50.968;3.134;2024-02-15T00:47:05;5.00;;;3.15;;
18104;SDS011;9179;50.968;3.134;2024-02-15T00:49:33;5.95;;;3.60;;
18104;SDS011;9179;50.968;3.134;2024-02-15T00:52:01;8.05;;;3.20;;
18104;SDS011;9179;50.968;3.134;2024-02-15T00:54:28;8.40;;;4.75;;
18104;SDS011;9179;50.968;3.134;2024-02-15T00:56:55;3.35;;;2.97;;
18104;SDS011;9179;50.968;3.134;2024-02-15T00:59:22;4.93;;;3.08;;
18104;SDS011;9179;50.968;3.134;2024-02-15T01:01:50;9.95;;;3.95;;
18104;SDS011;9179;50.968;3.134;2024-02-15T01:04:18;7.18;;;3.72;;
18104;SDS011;9179;50.968;3.134;2024-02-15T01:06:45;5.28;;;3.25;;
18104;SDS011;9179;50.968;3.134;2024-02-15T01:09:12;5.70;;;3.45;;
18104;SDS011;9179;50.968;3.134;2024-02-15T01:11:39;7.22;;;3.67;;
18104;SDS011;9179;50.968;3.134;2024-02-15T01:14:06;5.00;;;2.95;;
18104;SDS011;9179;50.968;3.134;2024-02-15T01:16:34;6.43;;;3.38;;
18104;SDS011;9179;50.968;3.134;2024-02-15T01:19:03;6.15;;;3.08;;
18104;SDS011;9179;50.968;3.134;2024-02-15T01:21:30;4.53;;;3.20;;
18104;SDS011;9179;50.968;3.134;2024-02-15T01:23:58;5.60;;;3.50;;
18104;SDS011;9179;50.968;3.134;2024-02-15T01:26:25;5.43;;;3.20;;
18104;SDS011;9179;50.968;3.134;2024-02-15T01:28:52;3.65;;;3.05;;
18104;SDS011;9179;50.968;3.134;2024-02-15T01:31:19;5.07;;;3.10;;
18104;SDS011;9179;50.968;3.134;2024-02-15T01:33:47;6.88;;;3.30;;
18104;SDS011;9179;50.968;3.134;2024-02-15T01:36:16;5.50;;;3.35;;
18104;SDS011;9179;50.968;3.134;2024-02-15T01:38:44;4.53;;;3.25;;
18104;SDS011;9179;50.968;3.134;2024-02-15T01:41:11;6.70;;;3.92;;
18104;SDS011;9179;50.968;3.134;2024-02-15T01:43:42;3.60;;;3.38;;
18104;SDS011;9179;50.968;3.134;2024-02-15T01:46:09;6.22;;;3.47;;
18104;SDS011;9179;50.968;3.134;2024-02-15T01:48:37;5.93;;;4.18;;
18104;SDS011;9179;50.968;3.134;2024-02-15T01:51:07;4.35;;;3.58;;
18104;SDS011;9179;50.968;3.134;2024-02-15T01:53:37;7.88;;;3.58;;
18104;SDS011;9179;50.968;3.134;2024-02-15T01:56:06;7.30;;;3.78;;
18104;SDS011;9179;50.968;3.134;2024-02-15T01:58:34;4.30;;;3.30;;
18104;SDS011;9179;50.968;3.134;2024-02-15T02:01:01;5.80;;;3.47;;
18104;SDS011;9179;50.968;3.134;2024-02-15T02:03:29;8.20;;;4.15;;
18104;SDS011;9179;50.968;3.134;2024-02-15T02:05:56;4.60;;;3.22;;
18104;SDS011;9179;50.968;3.134;2024-02-15T02:08:24;7.13;;;3.30;;
18104;SDS011;9179;50.968;3.134;2024-02-15T02:10:53;5.35;;;3.35;;
18104;SDS011;9179;50.968;3.134;2024-02-15T02:13:20;7.05;;;3.15;;
18104;SDS011;9179;50.968;3.134;2024-02-15T02:15:48;3.92;;;2.90;;
18104;SDS011;9179;50.968;3.134;2024-02-15T02:18:15;5.18;;;3.20;;
18104;SDS011;9179;50.968;3.134;2024-02-15T02:20:42;5.68;;;3.08;;
18104;SDS011;9179;50.968;3.134;2024-02-15T02:23:13;3.85;;;3.45;;
18104;SDS011;9179;50.968;3.134;2024-02-15T02:25:42;5.47;;;3.33;;
18104;SDS011;9179;50.968;3.134;2024-02-15T02:28:14;5.43;;;3.45;;
18104;SDS011;9179;50.968;3.134;2024-02-15T02:30:42;7.90;;;3.33;;
18104;SDS011;9179;50.968;3.134;2024-02-15T02:33:10;5.55;;;3.35;;
18104;SDS011;9179;50.968;3.134;2024-02-15T02:35:42;4.95;;;3.17;;
18104;SDS011;9179;50.968;3.134;2024-02-15T02:38:10;4.78;;;3.50;;
18104;SDS011;9179;50.968;3.134;2024-02-15T02:40:37;5.30;;;3.50;;
18104;SDS011;9179;50.968;3.134;2024-02-15T02:43:05;5.05;;;3.83;;
18104;SDS011;9179;50.968;3.134;2024-02-15T02:45:32;5.80;;;3.78;;
18104;SDS011;9179;50.968;3.134;2024-02-15T02:47:59;4.78;;;3.67;;
18104;SDS011;9179;50.968;3.134;2024-02-15T02:50:26;6.07;;;4.50;;
18104;SDS011;9179;50.968;3.134;2024-02-15T02:52:53;5.30;;;3.28;;
18104;SDS011;9179;50.968;3.134;2024-02-15T02:55:20;10.15;;;3.10;;
18104;SDS011;9179;50.968;3.134;2024-02-15T02:57:48;6.80;;;3.30;;
18104;SDS011;9179;50.968;3.134;2024-02-15T03:00:17;6.00;;;3.53;;
18104;SDS011;9179;50.968;3.134;2024-02-15T03:02:45;4.43;;;3.63;;
18104;SDS011;9179;50.968;3.134;2024-02-15T03:05:13;7.53;;;3.50;;
18104;SDS011;9179;50.968;3.134;2024-02-15T03:07:40;4.22;;;3.28;;
18104;SDS011;9179;50.968;3.134;2024-02-15T03:10:07;4.30;;;3.50;;
18104;SDS011;9179;50.968;3.134;2024-02-15T03:12:35;5.32;;;3.70;;
18104;SDS011;9179;50.968;3.134;2024-02-15T03:15:02;5.85;;;3.55;;
18104;SDS011;9179;50.968;3.134;2024-02-15T03:17:31;4.28;;;3.83;;
18104;SDS011;9179;50.968;3.134;2024-02-15T03:19:58;3.42;;;3.13;;
18104;SDS011;9179;50.968;3.134;2024-02-15T03:22:24;4.30;;;3.42;;
18104;SDS011;9179;50.968;3.134;2024-02-15T03:24:52;6.70;;;3.78;;
18104;SDS011;9179;50.968;3.134;2024-02-15T03:27:19;6.63;;;3.47;;
18104;SDS011;9179;50.968;3.134;2024-02-15T03:29:48;3.75;;;3.45;;
18104;SDS011;9179;50.968;3.134;2024-02-15T03:32:16;9.02;;;4.05;;
18104;SDS011;9179;50.968;3.134;2024-02-15T03:34:44;4.90;;;4.40;;
18104;SDS011;9179;50.968;3.134;2024-02-15T03:37:11;7.07;;;3.42;;
18104;SDS011;9179;50.968;3.134;2024-02-15T03:39:38;5.25;;;4.03;;
18104;SDS011;9179;50.968;3.134;2024-02-15T03:42:05;5.32;;;3.50;;
18104;SDS011;9179;50.968;3.134;2024-02-15T03:44:32;4.07;;;3.78;;
18104;SDS011;9179;50.968;3.134;2024-02-15T03:46:59;3.88;;;3.53;;
18104;SDS011;9179;50.968;3.134;2024-02-15T03:49:27;3.70;;;3.40;;
18104;SDS011;9179;50.968;3.134;2024-02-15T03:51:57;5.90;;;3.70;;
18104;SDS011;9179;50.968;3.134;2024-02-15T03:54:27;3.35;;;2.97;;
18104;SDS011;9179;50.968;3.134;2024-02-15T03:56:55;3.28;;;2.97;;
18104;SDS011;9179;50.968;3.134;2024-02-15T03:59:24;4.30;;;3.63;;
18104;SDS011;9179;50.968;3.134;2024-02-15T04:01:52;4.18;;;3.78;;
18104;SDS011;9179;50.968;3.134;2024-02-15T04:04:19;6.20;;;3.13;;
18104;SDS011;9179;50.968;3.134;2024-02-15T04:06:47;5.15;;;3.00;;
18104;SDS011;9179;50.968;3.134;2024-02-15T04:09:15;4.95;;;3.58;;
18104;SDS011;9179;50.968;3.134;2024-02-15T04:11:43;5.07;;;3.40;;
18104;SDS011;9179;50.968;3.134;2024-02-15T04:14:12;4.82;;;4.05;;
18104;SDS011;9179;50.968;3.134;2024-02-15T04:16:39;3.70;;;3.40;;
18104;SDS011;9179;50.968;3.134;2024-02-15T04:19:06;3.20;;;2.90;;
18104;SDS011;9179;50.968;3.134;2024-02-15T04:21:33;4.07;;;3.65;;
18104;SDS011;9179;50.968;3.134;2024-02-15T04:23:59;7.20;;;4.43;;
18104;SDS011;9179;50.968;3.134;2024-02-15T04:26:28;7.20;;;3.63;;
18104;SDS011;9179;50.968;3.134;2024-02-15T04:28:56;3.63;;;3.28;;
18104;SDS011;9179;50.968;3.134;2024-02-15T04:31:24;4.00;;;3.70;;
18104;SDS011;9179;50.968;3.134;2024-02-15T04:33:54;5.45;;;3.38;;
18104;SDS011;9179;50.968;3.134;2024-02-15T04:36:22;5.72;;;3.95;;
18104;SDS011;9179;50.968;3.134;2024-02-15T04:38:50;6.50;;;4.07;;
18104;SDS011;9179;50.968;3.134;2024-02-15T04:41:17;4.03;;;3.15;;
18104;SDS011;9179;50.968;3.134;2024-02-15T04:43:49;6.13;;;3.50;;
18104;SDS011;9179;50.968;3.134;2024-02-15T04:46:16;5.85;;;3.50;;
18104;SDS011;9179;50.968;3.134;2024-02-15T04:48:45;3.88;;;3.35;;
18104;SDS011;9179;50.968;3.134;2024-02-15T04:51:14;5.75;;;3.33;;
18104;SDS011;9179;50.968;3.134;2024-02-15T04:53:42;7.53;;;3.72;;
18104;SDS011;9179;50.968;3.134;2024-02-15T04:56:11;7.30;;;3.83;;
18104;SDS011;9179;50.968;3.134;2024-02-15T04:58:39;5.00;;;3.30;;
18104;SDS011;9179;50.968;3.134;2024-02-15T05:01:15;3.65;;;3.28;;
18104;SDS011;9179;50.968;3.134;2024-02-15T05:03:42;4.72;;;3.40;;
18104;SDS011;9179;50.968;3.134;2024-02-15T05:06:10;3.65;;;3.35;;
18104;SDS011;9179;50.968;3.134;2024-02-15T05:08:38;7.03;;;3.78;;
18104;SDS011;9179;50.968;3.134;2024-02-15T05:11:07;3.33;;;3.03;;
18104;SDS011;9179;50.968;3.134;2024-02-15T05:13:40;6.07;;;3.92;;
18104;SDS011;9179;50.968;3.134;2024-02-15T05:16:07;5.25;;;3.80;;
18104;SDS011;9179;50.968;3.134;2024-02-15T05:18:35;4.85;;;4.45;;
18104;SDS011;9179;50.968;3.134;2024-02-15T05:21:03;8.50;;;4.18;;
18104;SDS011;9179;50.968;3.134;2024-02-15T05:23:34;8.70;;;4.45;;
18104;SDS011;9179;50.968;3.134;2024-02-15T05:26:01;5.68;;;5.03;;
18104;SDS011;9179;50.968;3.134;2024-02-15T05:28:29;6.72;;;4.28;;
18104;SDS011;9179;50.968;3.134;2024-02-15T05:31:10;6.05;;;4.65;;
18104;SDS011;9179;50.968;3.134;2024-02-15T05:33:40;5.55;;;4.93;;
18104;SDS011;9179;50.968;3.134;2024-02-15T05:36:08;7.15;;;5.40;;
18104;SDS011;9179;50.968;3.134;2024-02-15T05:38:36;9.65;;;7.05;;
18104;SDS011;9179;50.968;3.134;2024-02-15T05:41:03;8.52;;;5.30;;
18104;SDS011;9179;50.968;3.134;2024-02-15T05:43:32;8.27;;;6.68;;
18104;SDS011;9179;50.968;3.134;2024-02-15T05:46:01;7.75;;;6.57;;
18104;SDS011;9179;50.968;3.134;2024-02-15T05:48:28;7.53;;;5.35;;
18104;SDS011;9179;50.968;3.134;2024-02-15T05:50:56;8.38;;;6.63;;
18104;SDS011;9179;50.968;3.134;2024-02-15T05:53:24;7.00;;;5.60;;
18104;SDS011;9179;50.968;3.134;2024-02-15T05:55:51;7.75;;;6.15;;
18104;SDS011;9179;50.968;3.134;2024-02-15T05:58:18;9.40;;;6.35;;
18104;SDS011;9179;50.968;3.134;2024-02-15T06:00:46;7.75;;;6.32;;
18104;SDS011;9179;50.968;3.134;2024-02-15T06:03:14;7.97;;;6.60;;
18104;SDS011;9179;50.968;3.134;2024-02-15T06:05:41;8.45;;;6.00;;
18104;SDS011;9179;50.968;3.134;2024-02-15T06:08:11;9.82;;;5.97;;
18104;SDS011;9179;50.968;3.134;2024-02-15T06:10:38;7.57;;;6.05;;
18104;SDS011;9179;50.968;3.134;2024-02-15T06:13:05;9.45;;;6.10;;
18104;SDS011;9179;50.968;3.134;2024-02-15T06:15:34;9.48;;;6.05;;
18104;SDS011;9179;50.968;3.134;2024-02-15T06:18:01;9.13;;;6.57;;
18104;SDS011;9179;50.968;3.134;2024-02-15T06:20:35;6.88;;;5.80;;
18104;SDS011;9179;50.968;3.134;2024-02-15T06:23:04;8.10;;;6.45;;
18104;SDS011;9179;50.968;3.134;2024-02-15T06:25:34;8.57;;;5.75;;
18104;SDS011;9179;50.968;3.134;2024-02-15T06:28:01;12.70;;;6.45;;
18104;SDS011;9179;50.968;3.134;2024-02-15T06:30:38;9.48;;;6.88;;
18104;SDS011;9179;50.968;3.134;2024-02-15T06:33:22;9.77;;;5.70;;
18104;SDS011;9179;50.968;3.134;2024-02-15T06:36:06;7.45;;;5.97;;
18104;SDS011;9179;50.968;3.134;2024-02-15T06:38:51;12.15;;;6.93;;
18104;SDS011;9179;50.968;3.134;2024-02-15T06:41:37;9.40;;;6.45;;
18104;SDS011;9179;50.968;3.134;2024-02-15T06:44:04;10.00;;;6.05;;
18104;SDS011;9179;50.968;3.134;2024-02-15T06:46:31;8.07;;;5.85;;
18104;SDS011;9179;50.968;3.134;2024-02-15T06:48:58;9.57;;;5.65;;
18104;SDS011;9179;50.968;3.134;2024-02-15T06:51:25;8.88;;;5.97;;
18104;SDS011;9179;50.968;3.134;2024-02-15T06:53:52;8.75;;;6.28;;
18104;SDS011;9179;50.968;3.134;2024-02-15T06:56:20;10.18;;;5.72;;
18104;SDS011;9179;50.968;3.134;2024-02-15T06:58:49;9.38;;;6.60;;
18104;SDS011;9179;50.968;3.134;2024-02-15T07:01:16;7.25;;;6.50;;
18104;SDS011;9179;50.968;3.134;2024-02-15T07:03:43;8.65;;;6.05;;
18104;SDS011;9179;50.968;3.134;2024-02-15T07:06:10;7.25;;;6.13;;
18104;SDS011;9179;50.968;3.134;2024-02-15T07:08:38;9.38;;;6.63;;
18104;SDS011;9179;50.968;3.134;2024-02-15T07:11:06;7.95;;;6.30;;
18104;SDS011;9179;50.968;3.134;2024-02-15T07:13:34;7.53;;;5.65;;
18104;SDS011;9179;50.968;3.134;2024-02-15T07:16:05;7.43;;;6.13;;
18104;SDS011;9179;50.968;3.134;2024-02-15T07:18:33;7.72;;;6.10;;
18104;SDS011;9179;50.968;3.134;2024-02-15T07:21:00;7.38;;;5.97;;
18104;SDS011;9179;50.968;3.134;2024-02-15T07:23:29;7.97;;;5.90;;
18104;SDS011;9179;50.968;3.134;2024-02-15T07:25:56;7.03;;;5.78;;
18104;SDS011;9179;50.968;3.134;2024-02-15T07:28:23;9.10;;;6.95;;
18104;SDS011;9179;50.968;3.134;2024-02-15T07:30:51;6.07;;;5.45;;
18104;SDS011;9179;50.968;3.134;2024-02-15T07:33:20;6.68;;;5.28;;
18104;SDS011;9179;50.968;3.134;2024-02-15T07:35:48;6.90;;;5.68;;
18104;SDS011;9179;50.968;3.134;2024-02-15T07:38:16;8.57;;;5.97;;
18104;SDS011;9179;50.968;3.134;2024-02-15T07:40:43;7.45;;;6.05;;
18104;SDS011;9179;50.968;3.134;2024-02-15T07:43:10;7.32;;;5.65;;
18104;SDS011;9179;50.968;3.134;2024-02-15T07:45:37;6.40;;;5.60;;
18104;SDS011;9179;50.968;3.134;2024-02-15T07:48:04;9.40;;;5.45;;
18104;SDS011;9179;50.968;3.134;2024-02-15T07:50:33;5.60;;;5.05;;
18104;SDS011;9179;50.968;3.134;2024-02-15T07:53:02;7.03;;;5.45;;
18104;SDS011;9179;50.968;3.134;2024-02-15T07:55:30;10.38;;;5.40;;
18104;SDS011;9179;50.968;3.134;2024-02-15T07:57:57;6.60;;;5.18;;
18104;SDS011;9179;50.968;3.134;2024-02-15T08:00:24;5.93;;;4.90;;
18104;SDS011;9179;50.968;3.134;2024-02-15T08:02:52;5.85;;;5.35;;
18104;SDS011;9179;50.968;3.134;2024-02-15T08:05:19;6.25;;;5.63;;
18104;SDS011;9179;50.968;3.134;2024-02-15T08:07:48;5.57;;;4.63;;
18104;SDS011;9179;50.968;3.134;2024-02-15T08:10:15;6.45;;;5.45;;
18104;SDS011;9179;50.968;3.134;2024-02-15T08:12:43;7.40;;;4.90;;
18104;SDS011;9179;50.968;3.134;2024-02-15T08:15:11;8.07;;;4.75;;
18104;SDS011;9179;50.968;3.134;2024-02-15T08:17:39;5.97;;;4.55;;
18104;SDS011;9179;50.968;3.134;2024-02-15T08:20:07;4.90;;;4.50;;
18104;SDS011;9179;50.968;3.134;2024-02-15T08:22:34;6.60;;;5.13;;
18104;SDS011;9179;50.968;3.134;2024-02-15T08:25:06;6.75;;;4.28;;
18104;SDS011;9179;50.968;3.134;2024-02-15T08:27:35;5.68;;;3.63;;
18104;SDS011;9179;50.968;3.134;2024-02-15T08:30:06;5.25;;;3.95;;
18104;SDS011;9179;50.968;3.134;2024-02-15T08:32:35;4.68;;;4.28;;
18104;SDS011;9179;50.968;3.134;2024-02-15T08:35:02;4.60;;;4.22;;
18104;SDS011;9179;50.968;3.134;2024-02-15T08:37:31;6.55;;;3.95;;
18104;SDS011;9179;50.968;3.134;2024-02-15T08:39:59;5.65;;;4.82;;
18104;SDS011;9179;50.968;3.134;2024-02-15T08:42:27;4.93;;;4.05;;
18104;SDS011;9179;50.968;3.134;2024-02-15T08:44:54;4.53;;;4.10;;
18104;SDS011;9179;50.968;3.134;2024-02-15T08:47:21;4.70;;;4.07;;
18104;SDS011;9179;50.968;3.134;2024-02-15T08:49:48;4.45;;;4.00;;
18104;SDS011;9179;50.968;3.134;2024-02-15T08:52:15;5.18;;;3.90;;
18104;SDS011;9179;50.968;3.134;2024-02-15T08:54:43;3.60;;;3.30;;
18104;SDS011;9179;50.968;3.134;2024-02-15T08:57:10;4.25;;;3.85;;
18104;SDS011;9179;50.968;3.134;2024-02-15T08:59:40;4.20;;;3.90;;
18104;SDS011;9179;50.968;3.134;2024-02-15T09:02:07;5.40;;;4.72;;
18104;SDS011;9179;50.968;3.134;2024-02-15T09:04:35;5.00;;;3.85;;
18104;SDS011;9179;50.968;3.134;2024-02-15T09:07:02;5.10;;;3.17;;
18104;SDS011;9179;50.968;3.134;2024-02-15T09:09:29;5.90;;;3.40;;
18104;SDS011;9179;50.968;3.134;2024-02-15T09:12:00;4.00;;;3.15;;
18104;SDS011;9179;50.968;3.134;2024-02-15T09:14:30;6.25;;;4.00;;
18104;SDS011;9179;50.968;3.134;2024-02-15T09:16:59;4.35;;;3.95;;
18104;SDS011;9179;50.968;3.134;2024-02-15T09:19:26;3.75;;;3.38;;
18104;SDS011;9179;50.968;3.134;2024-02-15T09:21:53;5.05;;;3.30;;
18104;SDS011;9179;50.968;3.134;2024-02-15T09:24:22;4.15;;;3.58;;
18104;SDS011;9179;50.968;3.134;2024-02-15T09:26:50;3.28;;;2.95;;
18104;SDS011;9179;50.968;3.134;2024-02-15T09:29:17;5.68;;;3.47;;
18104;SDS011;9179;50.968;3.134;2024-02-15T09:31:45;6.05;;;3.28;;
18104;SDS011;9179;50.968;3.134;2024-02-15T09:34:14;3.20;;;2.90;;
18104;SDS011;9179;50.968;3.134;2024-02-15T09:36:41;4.20;;;3.25;;
18104;SDS011;9179;50.968;3.134;2024-02-15T09:39:08;3.90;;;2.97;;
18104;SDS011;9179;50.968;3.134;2024-02-15T09:41:39;3.88;;;3.00;;
18104;SDS011;9179;50.968;3.134;2024-02-15T09:44:07;4.32;;;3.53;;
18104;SDS011;9179;50.968;3.134;2024-02-15T09:46:35;4.45;;;3.33;;
18104;SDS011;9179;50.968;3.134;2024-02-15T09:49:03;2.63;;;2.42;;
18104;SDS011;9179;50.968;3.134;2024-02-15T09:51:34;4.03;;;2.97;;
18104;SDS011;9179;50.968;3.134;2024-02-15T09:54:02;3.70;;;2.75;;
18104;SDS011;9179;50.968;3.134;2024-02-15T09:56:30;3.65;;;2.75;;
18104;SDS011;9179;50.968;3.134;2024-02-15T09:58:59;4.45;;;2.95;;
18104;SDS011;9179;50.968;3.134;2024-02-15T10:01:27;5.43;;;3.00;;
18104;SDS011;9179;50.968;3.134;2024-02-15T10:03:57;3.63;;;3.30;;
18104;SDS011;9179;50.968;3.134;2024-02-15T10:06:25;3.50;;;3.20;;
18104;SDS011;9179;50.968;3.134;2024-02-15T10:08:54;4.30;;;3.00;;
18104;SDS011;9179;50.968;3.134;2024-02-15T10:11:53;3.78;;;2.95;;
18104;SDS011;9179;50.968;3.134;2024-02-15T10:14:21;5.03;;;2.65;;
18104;SDS011;9179;50.968;3.134;2024-02-15T10:16:48;5.03;;;2.72;;
18104;SDS011;9179;50.968;3.134;2024-02-15T10:19:15;3.33;;;2.45;;
18104;SDS011;9179;50.968;3.134;2024-02-15T10:21:43;3.42;;;2.90;;
18104;SDS011;9179;50.968;3.134;2024-02-15T10:24:11;3.97;;;2.47;;
18104;SDS011;9179;50.968;3.134;2024-02-15T10:26:39;4.07;;;2.70;;
18104;SDS011;9179;50.968;3.134;2024-02-15T10:29:06;3.22;;;2.90;;
18104;SDS011;9179;50.968;3.134;2024-02-15T10:31:35;3.10;;;2.67;;
18104;SDS011;9179;50.968;3.134;2024-02-15T10:34:05;5.03;;;2.85;;
18104;SDS011;9179;50.968;3.134;2024-02-15T10:36:33;6.80;;;2.90;;
18104;SDS011;9179;50.968;3.134;2024-02-15T10:39:11;2.25;;;2.05;;
18104;SDS011;9179;50.968;3.134;2024-02-15T10:41:43;4.07;;;2.38;;
18104;SDS011;9179;50.968;3.134;2024-02-15T10:44:12;6.13;;;2.40;;
18104;SDS011;9179;50.968;3.134;2024-02-15T10:46:42;4.18;;;1.88;;
18104;SDS011;9179;50.968;3.134;2024-02-15T10:49:11;4.68;;;2.30;;
18104;SDS011;9179;50.968;3.134;2024-02-15T10:51:38;2.80;;;2.53;;
18104;SDS011;9179;50.968;3.134;2024-02-15T10:54:11;2.92;;;1.90;;
18104;SDS011;9179;50.968;3.134;2024-02-15T10:56:45;2.28;;;2.08;;
18104;SDS011;9179;50.968;3.134;2024-02-15T10:59:17;2.05;;;1.95;;
18104;SDS011;9179;50.968;3.134;2024-02-15T11:01:47;4.78;;;2.08;;
18104;SDS011;9179;50.968;3.134;2024-02-15T11:04:18;3.78;;;1.90;;
18104;SDS011;9179;50.968;3.134;2024-02-15T11:06:48;4.28;;;2.50;;
18104;SDS011;9179;50.968;3.134;2024-02-15T11:09:18;3.05;;;2.80;;
18104;SDS011;9179;50.968;3.134;2024-02-15T11:11:47;4.00;;;2.60;;
18104;SDS011;9179;50.968;3.134;2024-02-15T11:14:22;6.80;;;2.53;;
18104;SDS011;9179;50.968;3.134;2024-02-15T11:16:49;2.72;;;1.80;;
18104;SDS011;9179;50.968;3.134;2024-02-15T11:22:15;3.38;;;2.00;;
18104;SDS011;9179;50.968;3.134;2024-02-15T11:24:47;4.55;;;2.70;;
18104;SDS011;9179;50.968;3.134;2024-02-15T11:27:25;2.63;;;2.10;;
18104;SDS011;9179;50.968;3.134;2024-02-15T11:29:53;2.22;;;1.90;;
18104;SDS011;9179;50.968;3.134;2024-02-15T11:32:39;2.95;;;2.20;;
18104;SDS011;9179;50.968;3.134;2024-02-15T11:35:10;3.10;;;2.55;;
18104;SDS011;9179;50.968;3.134;2024-02-15T11:37:55;3.13;;;2.72;;
18104;SDS011;9179;50.968;3.134;2024-02-15T11:40:28;2.55;;;2.35;;
18104;SDS011;9179;50.968;3.134;2024-02-15T11:42:56;3.42;;;2.10;;
18104;SDS011;9179;50.968;3.134;2024-02-15T11:45:24;3.67;;;2.30;;
18104;SDS011;9179;50.968;3.134;2024-02-15T11:47:57;5.07;;;2.40;;
18104;SDS011;9179;50.968;3.134;2024-02-15T11:50:27;3.25;;;2.53;;
18104;SDS011;9179;50.968;3.134;2024-02-15T11:53:01;4.10;;;2.45;;
18104;SDS011;9179;50.968;3.134;2024-02-15T11:55:32;2.70;;;2.50;;
18104;SDS011;9179;50.968;3.134;2024-02-15T11:58:00;4.07;;;2.92;;
18104;SDS011;9179;50.968;3.134;2024-02-15T12:00:37;6.50;;;4.05;;
18104;SDS011;9179;50.968;3.134;2024-02-15T12:03:22;3.90;;;3.50;;
18104;SDS011;9179;50.968;3.134;2024-02-15T12:06:07;2.85;;;2.35;;
18104;SDS011;9179;50.968;3.134;2024-02-15T12:08:52;3.10;;;2.90;;
18104;SDS011;9179;50.968;3.134;2024-02-15T12:11:39;2.45;;;2.03;;
18104;SDS011;9179;50.968;3.134;2024-02-15T12:14:23;3.80;;;2.28;;
18104;SDS011;9179;50.968;3.134;2024-02-15T12:17:08;2.83;;;1.75;;
18104;SDS011;9179;50.968;3.134;2024-02-15T12:19:54;2.80;;;1.80;;
18104;SDS011;9179;50.968;3.134;2024-02-15T12:22:23;2.88;;;1.73;;
18104;SDS011;9179;50.968;3.134;2024-02-15T12:24:55;2.00;;;1.88;;
18104;SDS011;9179;50.968;3.134;2024-02-15T12:27:24;4.43;;;2.15;;
18104;SDS011;9179;50.968;3.134;2024-02-15T12:29:55;2.38;;;2.17;;
18104;SDS011;9179;50.968;3.134;2024-02-15T12:32:23;2.58;;;2.35;;
18104;SDS011;9179;50.968;3.134;2024-02-15T12:34:51;2.97;;;2.08;;
18104;SDS011;9179;50.968;3.134;2024-02-15T12:37:18;2.85;;;2.40;;
18104;SDS011;9179;50.968;3.134;2024-02-15T12:39:47;3.67;;;2.58;;
18104;SDS011;9179;50.968;3.134;2024-02-15T12:42:15;2.63;;;2.25;;
18104;SDS011;9179;50.968;3.134;2024-02-15T12:44:44;4.03;;;2.20;;
18104;SDS011;9179;50.968;3.134;2024-02-15T12:47:19;3.95;;;2.55;;
18104;SDS011;9179;50.968;3.134;2024-02-15T12:49:47;2.78;;;1.70;;
18104;SDS011;9179;50.968;3.134;2024-02-15T12:52:34;3.58;;;2.08;;
18104;SDS011;9179;50.968;3.134;2024-02-15T12:55:11;2.50;;;2.00;;
18104;SDS011;9179;50.968;3.134;2024-02-15T12:57:39;3.33;;;2.00;;
18104;SDS011;9179;50.968;3.134;2024-02-15T13:00:12;3.55;;;2.20;;
18104;SDS011;9179;50.968;3.134;2024-02-15T13:02:43;3.25;;;2.45;;
18104;SDS011;9179;50.968;3.134;2024-02-15T13:05:11;3.95;;;1.67;;
18104;SDS011;9179;50.968;3.134;2024-02-15T13:07:38;3.28;;;1.75;;
18104;SDS011;9179;50.968;3.134;2024-02-15T13:10:06;3.28;;;2.00;;
18104;SDS011;9179;50.968;3.134;2024-02-15T13:12:34;1.58;;;1.48;;
18104;SDS011;9179;50.968;3.134;2024-02-15T13:15:03;2.83;;;1.65;;
18104;SDS011;9179;50.968;3.134;2024-02-15T13:17:33;6.13;;;1.70;;
18104;SDS011;9179;50.968;3.134;2024-02-15T13:20:00;2.10;;;1.52;;
18104;SDS011;9179;50.968;3.134;2024-02-15T13:22:31;2.22;;;1.83;;
18104;SDS011;9179;50.968;3.134;2024-02-15T13:24:59;2.45;;;2.25;;
18104;SDS011;9179;50.968;3.134;2024-02-15T13:27:28;2.72;;;2.00;;
18104;SDS011;9179;50.968;3.134;2024-02-15T13:29:55;2.28;;;2.08;;
18104;SDS011;9179;50.968;3.134;2024-02-15T13:32:23;2.28;;;2.13;;
18104;SDS011;9179;50.968;3.134;2024-02-15T13:34:51;2.55;;;2.15;;
18104;SDS011;9179;50.968;3.134;2024-02-15T13:37:21;3.60;;;2.03;;
18104;SDS011;9179;50.968;3.134;2024-02-15T13:39:49;3.90;;;2.22;;
18104;SDS011;9179;50.968;3.134;2024-02-15T13:42:16;2.83;;;2.20;;
18104;SDS011;9179;50.968;3.134;2024-02-15T13:44:44;2.53;;;2.00;;
18104;SDS011;9179;50.968;3.134;2024-02-15T13:47:11;2.65;;;1.98;;
18104;SDS011;9179;50.968;3.134;2024-02-15T13:49:38;3.17;;;1.77;;
18104;SDS011;9179;50.968;3.134;2024-02-15T13:52:06;2.00;;;1.80;;
18104;SDS011;9179;50.968;3.134;2024-02-15T13:54:36;4.00;;;2.22;;
18104;SDS011;9179;50.968;3.134;2024-02-15T13:57:04;3.80;;;2.10;;
18104;SDS011;9179;50.968;3.134;2024-02-15T13:59:32;2.80;;;2.10;;
18104;SDS011;9179;50.968;3.134;2024-02-15T14:01:59;3.00;;;1.90;;
18104;SDS011;9179;50.968;3.134;2024-02-15T14:04:28;2.55;;;2.35;;
18104;SDS011;9179;50.968;3.134;2024-02-15T14:06:57;2.92;;;2.60;;
18104;SDS011;9179;50.968;3.134;2024-02-15T14:09:27;4.03;;;2.22;;
18104;SDS011;9179;50.968;3.134;2024-02-15T14:11:53;2.58;;;2.33;;
18104;SDS011;9179;50.968;3.134;2024-02-15T14:14:21;2.90;;;2.10;;
18104;SDS011;9179;50.968;3.134;2024-02-15T14:16:47;2.63;;;1.90;;
18104;SDS011;9179;50.968;3.134;2024-02-15T14:19:14;2.92;;;1.83;;
18104;SDS011;9179;50.968;3.134;2024-02-15T14:21:42;1.83;;;1.70;;
18104;SDS011;9179;50.968;3.134;2024-02-15T14:24:10;2.08;;;1.75;;
18104;SDS011;9179;50.968;3.134;2024-02-15T14:26:39;2.10;;;1.95;;
18104;SDS011;9179;50.968;3.134;2024-02-15T14:29:06;2.13;;;1.90;;
18104;SDS011;9179;50.968;3.134;2024-02-15T14:31:34;2.70;;;2.20;;
18104;SDS011;9179;50.968;3.134;2024-02-15T14:34:19;3.35;;;3.05;;
18104;SDS011;9179;50.968;3.134;2024-02-15T14:36:46;2.95;;;2.38;;
18104;SDS011;9179;50.968;3.134;2024-02-15T14:39:13;2.58;;;2.35;;
18104;SDS011;9179;50.968;3.134;2024-02-15T14:41:42;2.35;;;2.15;;
18104;SDS011;9179;50.968;3.134;2024-02-15T14:44:09;2.45;;;2.20;;
18104;SDS011;9179;50.968;3.134;2024-02-15T14:46:38;2.13;;;2.00;;
18104;SDS011;9179;50.968;3.134;2024-02-15T14:49:05;3.30;;;1.88;;
18104;SDS011;9179;50.968;3.134;2024-02-15T14:51:33;3.85;;;2.80;;
18104;SDS011;9179;50.968;3.134;2024-02-15T14:54:02;2.22;;;2.03;;
18104;SDS011;9179;50.968;3.134;2024-02-15T14:56:30;2.22;;;2.03;;
18104;SDS011;9179;50.968;3.134;2024-02-15T14:58:59;1.60;;;1.50;;
18104;SDS011;9179;50.968;3.134;2024-02-15T15:01:26;2.58;;;1.77;;
18104;SDS011;9179;50.968;3.134;2024-02-15T15:03:54;2.15;;;1.55;;
18104;SDS011;9179;50.968;3.134;2024-02-15T15:06:23;2.67;;;2.47;;
18104;SDS011;9179;50.968;3.134;2024-02-15T15:09:08;1.92;;;1.63;;
18104;SDS011;9179;50.968;3.134;2024-02-15T15:11:53;2.42;;;2.22;;
18104;SDS011;9179;50.968;3.134;2024-02-15T15:14:39;3.72;;;2.28;;